Pagina principale
METAR-TAF:

METAR-TAF

Aeroporti :

Pechino, Cina

Aeroporto di Pechino-Capitale

latitudine: 39-56N, longitudine: 116-17E, altezza: 55 m

Osservazione

Il bollettino è stato emesso 19 minuti fa, alle 01:00 UTC
Vento 2 kt da direzioni variabili
Temperature -3°C
Umidità 58%
Pressione 1028 hPa
Visibilità 10 km o più
nessuna nube inferiore a 1500 m e nessun cumulonembo

METAR: ZBAA 250100Z VRB01MPS CAVOK M03/M10 Q1028 NOSIG

Ora: 09:19 (01:19 UTC)

Previsione

Il bollettino è stato emesso 3 ore e 49 minuti fa, alle 21:30 UTC
Previsione valida dal 25 alle 00 UTC al 25 alle 24 UTC
Vento 8 kt da sud
Visibilità 10 km o più
nessuna nube inferiore a 1500 m e nessun cumulonembo

TAF: ZBAA 242130Z 2500/2524 18004MPS CAVOK TX06/2507Z TNM07/21Z

Osservazioni e previsioni meteorologiche di più di 4000 aeroporti (messaggi METAR e TAF).

Le stazioni disponibili sono rappresentate dai dischi gialli e rossi sulla carta.

Puntare il mouse per vedere il nome della stazione.

Clicca sopra per visualizzare le osservazioni e previsioni meteorologiche.

Per cambiare la mappa : fare clic sui pulsanti verdi con una croce nera per ingrandire, il pulsante verde con un trattino per diminuire, o sulla freccia verde per le mappe adiacenti.


METAR-TAF: